createdAt,value
2022-12-23T00:01:26.854Z,79.47
2022-12-23T00:03:59.645Z,66.32
2022-12-23T00:06:27.444Z,64.75
2022-12-23T00:08:58.594Z,62.03
2022-12-23T00:11:27.550Z,54.90
2022-12-23T00:14:21.598Z,52.22
2022-12-23T00:16:52.714Z,51.65
2022-12-23T00:19:20.132Z,49.00
2022-12-23T00:21:49.888Z,49.50
2022-12-23T00:24:21.060Z,47.42
2022-12-23T00:26:48.859Z,46.03
2022-12-23T00:29:17.558Z,49.65
2022-12-23T00:31:44.514Z,48.88
2022-12-23T00:34:12.786Z,50.95
2022-12-23T00:36:40.783Z,46.45
2022-12-23T00:39:30.898Z,48.23
2022-12-23T00:42:18.750Z,48.42
2022-12-23T00:44:53.072Z,48.40
2022-12-23T00:47:38.607Z,49.72
2022-12-23T00:50:10.717Z,43.75
2022-12-23T00:52:40.854Z,42.03
2022-12-23T00:55:14.279Z,45.95
2022-12-23T00:57:41.379Z,45.83
2022-12-23T01:00:13.754Z,44.80
2022-12-23T01:02:59.810Z,42.10
2022-12-23T01:05:38.834Z,45.90
2022-12-23T01:08:08.495Z,52.38
2022-12-23T01:10:39.887Z,50.17
2022-12-23T01:13:08.960Z,48.58
2022-12-23T01:15:37.511Z,41.13
2022-12-23T01:18:04.733Z,45.80
2022-12-23T01:20:42.042Z,43.30
2022-12-23T01:23:14.786Z,39.05
2022-12-23T01:25:43.882Z,42.95
2022-12-23T01:28:25.123Z,40.63
2022-12-23T01:30:59.530Z,36.30
2022-12-23T01:33:26.535Z,40.97
2022-12-23T01:35:59.962Z,41.55
2022-12-23T01:38:27.198Z,42.00
2022-12-23T01:40:57.750Z,42.33
2022-12-23T01:43:44.962Z,51.75
2022-12-23T01:48:49.109Z,42.55
2022-12-23T01:51:19.929Z,44.13
2022-12-23T01:53:50.002Z,42.80
2022-12-23T01:56:27.210Z,38.60
2022-12-23T01:58:57.914Z,43.63
2022-12-23T02:01:50.670Z,44.60
2022-12-23T02:04:20.955Z,47.05
2022-12-23T02:07:09.150Z,42.22
2022-12-23T02:09:38.494Z,41.85
2022-12-23T02:12:33.226Z,42.90
2022-12-23T02:15:52.198Z,43.10
2022-12-23T02:18:48.388Z,43.95
2022-12-23T02:21:33.274Z,41.42
2022-12-23T02:24:44.960Z,43.67
2022-12-23T02:27:26.518Z,41.42
2022-12-23T02:30:30.145Z,36.08
2022-12-23T02:33:38.522Z,37.80
2022-12-23T02:36:20.748Z,40.50
2022-12-23T02:38:59.574Z,43.15
2022-12-23T02:41:37.334Z,40.03
2022-12-23T02:44:12.967Z,36.47
2022-12-23T02:46:46.493Z,41.17
2022-12-23T02:49:23.559Z,40.15
2022-12-23T02:51:54.552Z,36.65
2022-12-23T02:54:28.243Z,42.45
2022-12-23T02:57:03.253Z,45.00
2022-12-23T02:59:35.323Z,49.65
2022-12-23T03:02:08.781Z,41.45
2022-12-23T03:04:40.394Z,40.10
2022-12-23T03:07:18.808Z,44.78
2022-12-23T03:12:29.394Z,37.80
2022-12-23T03:15:08.781Z,38.58
2022-12-23T03:17:51.064Z,40.10
2022-12-23T03:20:27.599Z,39.50
2022-12-23T03:23:03.571Z,41.28
2022-12-23T03:25:35.859Z,39.10
2022-12-23T03:28:15.772Z,43.83
2022-12-23T03:30:50.955Z,40.42
2022-12-23T03:33:24.037Z,39.80
2022-12-23T03:35:56.701Z,46.67
2022-12-23T03:38:25.476Z,44.38
2022-12-23T03:40:56.276Z,48.42
2022-12-23T03:43:28.672Z,38.90
2022-12-23T03:45:59.575Z,44.75
2022-12-23T03:48:34.761Z,38.70
2022-12-23T03:51:09.982Z,45.28
2022-12-23T03:53:45.926Z,46.15
2022-12-23T03:56:17.916Z,39.85
2022-12-23T03:58:49.754Z,43.83
2022-12-23T04:01:24.068Z,42.72
2022-12-23T04:04:07.923Z,42.80
2022-12-23T04:06:41.114Z,34.97
2022-12-23T04:09:16.648Z,32.92
2022-12-23T04:11:47.789Z,35.47
2022-12-23T04:14:17.556Z,36.90
2022-12-23T04:16:44.824Z,49.28
2022-12-23T04:19:13.416Z,41.50
2022-12-23T04:21:42.061Z,48.08
2022-12-23T04:24:10.339Z,46.53
2022-12-23T04:26:42.132Z,55.85
2022-12-23T04:29:18.440Z,52.00
2022-12-23T04:31:45.298Z,46.17
2022-12-23T04:34:16.400Z,44.53
2022-12-23T04:36:46.115Z,43.40
2022-12-23T04:39:24.472Z,39.25
2022-12-23T04:42:00.629Z,36.30
2022-12-23T04:44:27.874Z,42.20
2022-12-23T04:46:54.826Z,49.08
2022-12-23T04:49:24.745Z,44.33
2022-12-23T04:51:54.576Z,43.13
2022-12-23T04:54:27.106Z,41.70
2022-12-23T04:56:54.112Z,37.67
2022-12-23T04:59:24.307Z,47.92
2022-12-23T05:01:51.349Z,41.80
2022-12-23T05:04:18.904Z,45.97
2022-12-23T05:06:47.368Z,44.55
2022-12-23T05:09:16.340Z,46.00
2022-12-23T05:11:43.215Z,44.20
2022-12-23T05:14:12.299Z,52.88
2022-12-23T05:16:39.656Z,44.88
2022-12-23T05:19:10.001Z,48.05
2022-12-23T05:21:39.959Z,42.40
2022-12-23T05:24:09.064Z,47.10
2022-12-23T05:26:35.940Z,40.65
2022-12-23T05:29:03.370Z,43.10
2022-12-23T05:31:30.782Z,45.25
2022-12-23T05:34:05.761Z,36.75
2022-12-23T05:36:33.514Z,49.35
2022-12-23T05:39:00.779Z,38.47
2022-12-23T05:41:29.020Z,46.65
2022-12-23T05:43:57.702Z,41.22
2022-12-23T05:46:27.059Z,39.70
2022-12-23T05:48:56.875Z,44.03
2022-12-23T05:51:24.267Z,40.63
2022-12-23T05:53:54.327Z,45.63
2022-12-23T05:56:21.229Z,38.72
2022-12-23T05:58:55.702Z,41.53
2022-12-23T06:01:22.591Z,36.38
2022-12-23T06:03:49.919Z,37.63
2022-12-23T06:06:16.948Z,44.97
2022-12-23T06:08:45.273Z,44.55
2022-12-23T06:11:13.129Z,39.03
2022-12-23T06:13:43.376Z,47.70
2022-12-23T06:16:17.589Z,35.33
2022-12-23T06:18:47.871Z,42.15
2022-12-23T06:21:14.829Z,39.33
2022-12-23T06:23:42.032Z,33.92
2022-12-23T06:26:08.970Z,38.00
2022-12-23T06:28:39.092Z,37.38
2022-12-23T06:31:10.533Z,37.58
2022-12-23T06:33:39.264Z,37.35
2022-12-23T06:36:11.084Z,44.88
2022-12-23T06:38:38.370Z,36.10
2022-12-23T06:41:09.162Z,39.72
2022-12-23T06:43:36.642Z,45.45
2022-12-23T06:46:06.449Z,42.45
2022-12-23T06:48:45.236Z,44.53
2022-12-23T06:51:15.161Z,42.03
2022-12-23T06:53:42.483Z,46.10
2022-12-23T06:56:17.356Z,40.72
2022-12-23T06:58:44.759Z,49.30
2022-12-23T07:01:17.123Z,45.35
2022-12-23T07:03:50.329Z,48.20
2022-12-23T07:06:19.715Z,45.92
2022-12-23T07:08:46.988Z,45.95
2022-12-23T07:11:13.939Z,40.10
2022-12-23T07:13:41.239Z,44.83
2022-12-23T07:16:13.298Z,48.63
2022-12-23T07:18:41.286Z,48.38
2022-12-23T07:21:19.993Z,47.28
2022-12-23T07:23:54.717Z,56.28
2022-12-23T07:26:21.677Z,49.90
2022-12-23T07:28:49.132Z,51.38
2022-12-23T07:31:17.557Z,51.90
2022-12-23T07:33:47.652Z,51.90
2022-12-23T07:36:15.948Z,50.53
2022-12-23T07:38:43.156Z,51.17
2022-12-23T07:41:10.055Z,42.85
2022-12-23T07:43:37.259Z,41.17
2022-12-23T07:46:07.227Z,43.30
2022-12-23T07:48:34.508Z,48.15
2022-12-23T07:51:02.038Z,45.92
2022-12-23T07:53:30.840Z,50.85
2022-12-23T07:55:59.888Z,44.63
2022-12-23T07:58:29.005Z,41.28
2022-12-23T08:01:00.670Z,46.20
2022-12-23T08:03:28.184Z,46.47
2022-12-23T08:06:02.824Z,44.58
2022-12-23T08:08:31.837Z,43.63
2022-12-23T08:11:00.250Z,38.80
2022-12-23T08:13:30.687Z,40.88
2022-12-23T08:15:59.424Z,36.65
2022-12-23T08:18:29.663Z,41.30
2022-12-23T08:20:57.683Z,42.42
2022-12-23T08:23:32.923Z,45.55
2022-12-23T08:26:01.480Z,44.53
2022-12-23T08:28:29.336Z,40.40
2022-12-23T08:31:05.137Z,38.97
2022-12-23T08:33:32.479Z,48.58
2022-12-23T08:36:03.231Z,53.65
2022-12-23T08:38:38.551Z,41.22
2022-12-23T08:41:09.384Z,38.90
2022-12-23T08:43:39.691Z,43.13
2022-12-23T08:46:08.529Z,42.88
2022-12-23T08:48:36.282Z,45.50
2022-12-23T08:51:07.469Z,43.80
2022-12-23T08:53:46.643Z,44.40
2022-12-23T08:56:18.181Z,44.53
2022-12-23T08:58:48.189Z,43.80
2022-12-23T09:01:17.084Z,48.20
2022-12-23T09:03:45.077Z,40.60
2022-12-23T09:06:21.864Z,43.00
2022-12-23T09:08:55.227Z,41.03
2022-12-23T09:11:27.797Z,45.33
2022-12-23T09:13:56.211Z,38.38
2022-12-23T09:16:23.431Z,44.28
2022-12-23T09:18:50.794Z,37.58
2022-12-23T09:21:27.437Z,48.53
2022-12-23T09:23:56.632Z,45.47
2022-12-23T09:26:25.944Z,44.50
2022-12-23T09:28:53.346Z,40.70
2022-12-23T09:31:21.508Z,40.72
2022-12-23T09:33:52.885Z,39.65
2022-12-23T09:36:36.664Z,51.50
2022-12-23T09:39:07.376Z,40.13
2022-12-23T09:41:48.410Z,45.88
2022-12-23T09:44:30.947Z,44.38
2022-12-23T09:47:02.050Z,41.08
2022-12-23T09:49:29.431Z,43.72
2022-12-23T09:52:00.244Z,52.03
2022-12-23T09:54:40.895Z,43.00
2022-12-23T09:57:20.109Z,44.50
2022-12-23T10:00:02.008Z,43.38
2022-12-23T10:02:42.778Z,48.55
2022-12-23T10:05:24.381Z,48.72
2022-12-23T10:07:55.513Z,45.10
2022-12-23T10:10:38.102Z,40.58
2022-12-23T10:13:17.686Z,52.83
2022-12-23T10:15:50.887Z,43.58
2022-12-23T10:18:22.617Z,43.47
2022-12-23T10:20:59.261Z,54.92
2022-12-23T10:23:33.785Z,47.95
2022-12-23T10:26:12.292Z,51.55
2022-12-23T10:28:40.971Z,53.13
2022-12-23T10:31:39.165Z,57.08
2022-12-23T10:34:15.251Z,51.80
2022-12-23T10:36:50.456Z,62.42
2022-12-23T10:39:28.326Z,63.92
2022-12-23T10:42:13.125Z,61.45
2022-12-23T10:44:54.155Z,54.95
2022-12-23T10:47:36.533Z,59.20
2022-12-23T10:50:26.021Z,61.60
2022-12-23T10:53:00.442Z,59.95
2022-12-23T10:55:34.109Z,65.80
2022-12-23T10:58:09.720Z,62.92
2022-12-23T11:00:44.714Z,64.85
2022-12-23T11:03:18.783Z,67.70
2022-12-23T11:05:48.687Z,63.28
2022-12-23T11:08:20.574Z,57.28
2022-12-23T11:13:32.520Z,58.90
2022-12-23T11:16:13.988Z,52.47
2022-12-23T11:18:54.581Z,54.72
2022-12-23T11:21:24.649Z,49.67
2022-12-23T11:24:08.190Z,53.60
2022-12-23T11:26:35.572Z,55.63
2022-12-23T11:29:16.888Z,54.40
2022-12-23T11:31:44.365Z,56.75
2022-12-23T11:34:26.249Z,57.33
2022-12-23T11:37:01.589Z,54.88
2022-12-23T11:39:33.965Z,55.38
2022-12-23T11:42:13.538Z,48.47
2022-12-23T11:44:46.801Z,56.95
2022-12-23T11:47:29.070Z,50.75
2022-12-23T11:50:04.027Z,52.45
2022-12-23T11:52:32.626Z,54.28
2022-12-23T11:55:01.827Z,53.83
2022-12-23T11:57:41.737Z,51.90
2022-12-23T12:00:20.634Z,55.03
2022-12-23T12:02:51.063Z,46.38
2022-12-23T12:05:32.951Z,48.45
2022-12-23T12:08:08.578Z,44.83
2022-12-23T12:10:39.563Z,48.60
2022-12-23T12:13:20.166Z,46.90
2022-12-23T12:15:55.769Z,44.20
2022-12-23T12:18:23.670Z,41.63
2022-12-23T12:20:53.788Z,49.93
2022-12-23T12:23:25.520Z,44.45
2022-12-23T12:25:56.663Z,45.22
2022-12-23T12:28:26.114Z,45.70
2022-12-23T12:31:05.755Z,50.75
2022-12-23T12:33:40.334Z,54.20
2022-12-23T12:36:18.785Z,48.22
2022-12-23T12:38:48.897Z,44.22
2022-12-23T12:41:28.231Z,45.78
2022-12-23T12:46:33.987Z,44.42
2022-12-23T12:49:09.172Z,43.08
2022-12-23T12:52:04.023Z,44.78
2022-12-23T12:54:39.522Z,46.17
2022-12-23T12:57:14.538Z,46.38
2022-12-23T12:59:43.108Z,49.17
2022-12-23T13:02:38.689Z,43.08
2022-12-23T13:05:19.936Z,46.30
2022-12-23T13:08:12.581Z,41.83
2022-12-23T13:10:47.055Z,41.60
2022-12-23T13:13:32.363Z,41.72
2022-12-23T13:16:04.169Z,38.97
2022-12-23T13:18:47.260Z,49.55
2022-12-23T13:21:24.207Z,40.85
2022-12-23T13:24:04.386Z,38.28
2022-12-23T13:26:38.617Z,45.38
2022-12-23T13:29:35.933Z,45.35
2022-12-23T13:32:12.520Z,42.58
2022-12-23T13:34:54.599Z,47.25
2022-12-23T13:37:29.174Z,39.42
2022-12-23T13:40:03.446Z,37.72
2022-12-23T13:42:37.823Z,41.75
2022-12-23T13:45:13.702Z,39.40
2022-12-23T13:47:59.666Z,41.95
2022-12-23T13:50:44.039Z,39.72
2022-12-23T13:53:20.684Z,39.88
2022-12-23T13:56:01.469Z,42.78
2022-12-23T13:58:33.457Z,40.72
2022-12-23T14:01:22.750Z,43.30
2022-12-23T14:03:51.014Z,40.78
2022-12-23T14:06:43.916Z,43.33
2022-12-23T14:09:17.047Z,42.13
2022-12-23T14:11:47.963Z,43.42
2022-12-23T14:14:22.591Z,42.20
2022-12-23T14:17:01.003Z,45.22
2022-12-23T14:19:57.798Z,41.08
2022-12-23T14:22:57.215Z,42.05
2022-12-23T14:25:49.139Z,41.58
2022-12-23T14:28:47.310Z,40.30
2022-12-23T14:31:41.823Z,40.70
2022-12-23T14:34:28.968Z,43.15
2022-12-23T14:37:16.995Z,39.33
2022-12-23T14:39:47.943Z,46.22
2022-12-23T14:42:34.244Z,41.72
2022-12-23T14:45:30.115Z,36.28
2022-12-23T14:47:57.085Z,39.20
2022-12-23T14:50:41.881Z,43.03
2022-12-23T14:53:27.346Z,41.03
2022-12-23T14:56:35.691Z,39.35
2022-12-23T14:59:22.220Z,46.53
2022-12-23T15:01:52.890Z,43.30
2022-12-23T15:04:26.014Z,50.05
2022-12-23T15:06:57.270Z,44.40
2022-12-23T15:09:30.523Z,44.70
2022-12-23T15:12:05.108Z,41.22
2022-12-23T15:14:35.720Z,37.03
2022-12-23T15:17:15.595Z,36.65
2022-12-23T15:19:47.782Z,41.08
2022-12-23T15:22:22.706Z,40.35
2022-12-23T15:24:52.588Z,43.05
2022-12-23T15:27:30.028Z,40.70
2022-12-23T15:29:57.807Z,42.47
2022-12-23T15:32:26.340Z,45.80
2022-12-23T15:34:59.125Z,53.05
2022-12-23T15:37:29.292Z,101.10
2022-12-23T15:40:06.241Z,95.32
2022-12-23T15:42:38.675Z,77.60
2022-12-23T15:45:34.455Z,74.57
2022-12-23T15:48:02.955Z,76.70
2022-12-23T15:50:40.293Z,66.70
2022-12-23T15:53:10.089Z,66.45
2022-12-23T15:55:40.698Z,69.50
2022-12-23T15:58:18.809Z,63.72
2022-12-23T16:00:54.543Z,68.38
2022-12-23T16:03:26.631Z,66.78
2022-12-23T16:06:10.399Z,70.28
2022-12-23T16:08:38.473Z,67.93
2022-12-23T16:11:13.452Z,81.60
2022-12-23T16:13:58.025Z,73.00
2022-12-23T16:16:40.242Z,68.75
2022-12-23T16:19:40.987Z,72.05
2022-12-23T16:22:18.087Z,64.28
2022-12-23T16:24:47.846Z,62.40
2022-12-23T16:27:17.269Z,62.65
2022-12-23T16:29:50.954Z,54.15
2022-12-23T16:32:19.513Z,54.03
2022-12-23T16:34:51.327Z,52.22
2022-12-23T16:37:18.317Z,47.00
2022-12-23T16:39:48.335Z,44.58
2022-12-23T16:42:15.213Z,41.22
2022-12-23T16:44:46.027Z,39.90
2022-12-23T16:47:17.432Z,40.67
2022-12-23T16:49:45.098Z,41.58
2022-12-23T16:52:16.340Z,42.55
2022-12-23T16:54:45.781Z,43.88
2022-12-23T16:57:12.772Z,40.55
2022-12-23T16:59:41.211Z,44.90
2022-12-23T17:02:18.548Z,45.25
2022-12-23T17:04:46.122Z,55.83
2022-12-23T17:07:24.279Z,55.50
2022-12-23T17:09:56.067Z,54.83
2022-12-23T17:12:30.509Z,56.92
2022-12-23T17:14:57.607Z,47.92
2022-12-23T17:17:31.092Z,56.88
2022-12-23T17:20:01.426Z,62.88
2022-12-23T17:22:34.631Z,50.78
2022-12-23T17:25:02.064Z,46.90
2022-12-23T17:27:32.507Z,49.20
2022-12-23T17:30:03.062Z,42.47
2022-12-23T17:32:31.851Z,34.70
2022-12-23T17:37:28.606Z,53.58
2022-12-23T17:39:55.878Z,38.67
2022-12-23T17:42:25.804Z,34.88
2022-12-23T17:44:58.211Z,36.22
2022-12-23T17:47:31.124Z,30.33
2022-12-23T17:49:59.821Z,31.17
2022-12-23T17:52:32.861Z,34.03
2022-12-23T17:55:06.316Z,34.05
2022-12-23T17:57:38.779Z,29.98
2022-12-23T18:00:08.473Z,31.83
2022-12-23T18:02:35.536Z,24.92
2022-12-23T18:05:19.362Z,35.25
2022-12-23T18:07:46.392Z,29.10
2022-12-23T18:10:16.559Z,31.10
2022-12-23T18:12:47.649Z,34.10
2022-12-23T18:15:22.778Z,36.95
2022-12-23T18:18:01.671Z,45.40
2022-12-23T18:20:33.206Z,30.90
2022-12-23T18:23:02.548Z,34.83
2022-12-23T18:25:29.934Z,36.25
2022-12-23T18:28:01.021Z,26.80
2022-12-23T18:30:28.231Z,28.83
2022-12-23T18:32:55.215Z,28.88
2022-12-23T18:35:33.934Z,27.38
2022-12-23T18:38:06.512Z,31.63
2022-12-23T18:40:33.791Z,27.10
2022-12-23T18:43:01.094Z,25.45
2022-12-23T18:45:32.065Z,30.40
2022-12-23T18:47:59.214Z,27.33
2022-12-23T18:50:27.769Z,30.23
2022-12-23T18:52:56.419Z,29.38
2022-12-23T18:55:24.223Z,28.48
2022-12-23T18:57:54.135Z,25.10
2022-12-23T19:00:23.079Z,27.40
2022-12-23T19:02:52.632Z,27.52
2022-12-23T19:05:22.235Z,26.08
2022-12-23T19:07:52.019Z,28.17
2022-12-23T19:10:29.018Z,27.85
2022-12-23T19:12:56.476Z,31.02
2022-12-23T19:15:26.963Z,30.48
2022-12-23T19:17:56.586Z,32.17
2022-12-23T19:20:26.084Z,37.30
2022-12-23T19:22:53.072Z,35.67
2022-12-23T19:25:24.422Z,37.22
2022-12-23T19:27:54.097Z,36.17
2022-12-23T19:30:21.465Z,40.30
2022-12-23T19:32:51.714Z,42.42
2022-12-23T19:35:19.592Z,40.38
2022-12-23T19:37:46.553Z,45.13
2022-12-23T19:40:13.872Z,44.40
2022-12-23T19:42:42.368Z,54.47
2022-12-23T19:45:10.832Z,55.00
2022-12-23T19:47:38.816Z,39.30
2022-12-23T19:50:07.749Z,36.20
2022-12-23T19:52:39.448Z,36.60
2022-12-23T19:55:13.164Z,49.30
2022-12-23T19:57:42.788Z,66.03
2022-12-23T20:00:13.256Z,66.82
2022-12-23T20:02:42.668Z,73.03
2022-12-23T20:05:10.362Z,76.75
2022-12-23T20:07:37.532Z,71.25
2022-12-23T20:10:05.930Z,56.17
2022-12-23T20:12:33.115Z,55.78
2022-12-23T20:15:02.815Z,55.78
2022-12-23T20:17:32.506Z,46.47
2022-12-23T20:19:59.760Z,51.58
2022-12-23T20:22:31.411Z,46.17
2022-12-23T20:24:59.449Z,38.40
2022-12-23T20:27:28.212Z,41.88
2022-12-23T20:29:55.657Z,41.85
2022-12-23T20:32:22.619Z,48.03
2022-12-23T20:34:51.237Z,45.08
2022-12-23T20:37:18.152Z,49.25
2022-12-23T20:39:45.297Z,44.70
2022-12-23T20:42:12.252Z,50.50
2022-12-23T20:44:42.608Z,50.55
2022-12-23T20:47:09.819Z,52.72
2022-12-23T20:49:37.223Z,63.72
2022-12-23T20:52:05.650Z,54.10
2022-12-23T20:54:34.044Z,47.13
2022-12-23T20:57:03.431Z,42.10
2022-12-23T20:59:30.729Z,44.85
2022-12-23T21:01:59.180Z,52.95
2022-12-23T21:04:30.492Z,72.38
2022-12-23T21:06:57.432Z,80.75
2022-12-23T21:09:26.025Z,61.85
2022-12-23T21:11:52.930Z,65.13
2022-12-23T21:14:20.170Z,53.85
2022-12-23T21:16:47.310Z,54.13
2022-12-23T21:19:16.909Z,46.38
2022-12-23T21:21:45.012Z,48.00
2022-12-23T21:24:15.177Z,49.38
2022-12-23T21:26:50.259Z,51.53
2022-12-23T21:29:21.632Z,52.08
2022-12-23T21:31:48.670Z,48.08
2022-12-23T21:34:18.069Z,50.05
2022-12-23T21:36:45.591Z,47.42
2022-12-23T21:39:16.955Z,48.25
2022-12-23T21:41:48.441Z,54.35
2022-12-23T21:44:15.791Z,50.45
2022-12-23T21:46:43.018Z,44.38
2022-12-23T21:49:11.149Z,40.42
2022-12-23T21:51:42.462Z,41.17
2022-12-23T21:54:13.481Z,38.30
2022-12-23T21:56:42.724Z,44.67
2022-12-23T21:59:13.884Z,46.45
2022-12-23T22:01:44.228Z,48.58
2022-12-23T22:04:11.945Z,41.97
2022-12-23T22:06:45.455Z,42.83
2022-12-23T22:09:14.909Z,44.90
2022-12-23T22:11:42.656Z,39.17
2022-12-23T22:14:15.141Z,43.45
2022-12-23T22:16:42.268Z,45.13
2022-12-23T22:19:11.272Z,47.22
2022-12-23T22:21:39.790Z,44.42
2022-12-23T22:24:12.023Z,55.78
2022-12-23T22:26:40.032Z,50.03
2022-12-23T22:29:12.278Z,46.97
2022-12-23T22:31:42.039Z,46.25
2022-12-23T22:34:15.568Z,41.40
2022-12-23T22:36:45.879Z,39.83
2022-12-23T22:39:20.709Z,55.70
2022-12-23T22:41:48.772Z,48.05
2022-12-23T22:44:21.743Z,47.63
2022-12-23T22:46:48.820Z,44.03
2022-12-23T22:49:16.795Z,46.55
2022-12-23T22:51:44.022Z,39.72
2022-12-23T22:54:11.405Z,41.80
2022-12-23T22:56:38.439Z,39.53
2022-12-23T22:59:08.592Z,43.05
2022-12-23T23:01:40.763Z,47.45
2022-12-23T23:04:10.048Z,39.05
2022-12-23T23:06:44.741Z,40.53
2022-12-23T23:09:14.326Z,38.40
2022-12-23T23:11:44.513Z,45.58
2022-12-23T23:14:15.058Z,37.20
2022-12-23T23:16:43.381Z,44.38
2022-12-23T23:19:15.050Z,36.92
2022-12-23T23:21:43.019Z,39.05
2022-12-23T23:24:11.955Z,44.25
2022-12-23T23:26:38.882Z,46.58
2022-12-23T23:29:06.008Z,37.80
2022-12-23T23:31:42.345Z,40.25
2022-12-23T23:34:11.844Z,43.90
2022-12-23T23:36:38.818Z,36.08
2022-12-23T23:39:06.052Z,40.05
2022-12-23T23:41:36.360Z,37.95
2022-12-23T23:44:08.271Z,34.22
2022-12-23T23:46:35.430Z,35.60
2022-12-23T23:49:03.039Z,34.63
2022-12-23T23:51:31.341Z,34.95
2022-12-23T23:53:58.560Z,33.88
2022-12-23T23:56:33.921Z,35.63
2022-12-23T23:59:05.360Z,38.13
